Time;durP1;ratioP1;P1;durP2;ratioP2;P2;SDS_P1;SDS_P2;PMS_P1;PMS_P2;Temp;Humidity;BMP_temperature;BMP_pressure;BME280_temperature;BME280_humidity;BME280_pressure;Samples;Min_cycle;Max_cycle;Signal;HPM_P1;HPM_P2
2022/03/17 00:00:56;;;;;;;6.57;3.58;;;;;;;19.36;38.71;101928.22;5022594;28;20429;-40
2022/03/17 00:03:23;;;;;;;6.53;4.78;;;;;;;19.36;38.41;101928.22;5018852;28;20048;-40
2022/03/17 00:05:50;;;;;;;6.20;4.13;;;;;;;19.35;38.62;101926.53;5025477;28;20900;-39
2022/03/17 00:08:16;;;;;;;8.02;4.10;;;;;;;19.34;38.25;101927.53;5021720;28;20033;-40
2022/03/17 00:10:43;;;;;;;6.65;4.88;;;;;;;19.35;38.90;101926.53;5023916;28;20705;-40
2022/03/17 00:13:11;;;;;;;5.82;3.92;;;;;;;19.34;38.65;101920.31;5025331;28;20152;-40
2022/03/17 00:15:40;;;;;;;6.60;4.60;;;;;;;19.33;39.00;101921.28;5025966;28;20104;-40
2022/03/17 00:18:07;;;;;;;6.47;4.40;;;;;;;19.34;38.72;101917.63;5024971;28;20079;-40
2022/03/17 00:20:34;;;;;;;5.70;4.32;;;;;;;19.33;38.84;101915.06;5023409;28;20053;-40
2022/03/17 00:23:01;;;;;;;9.68;4.80;;;;;;;19.33;39.22;101917.75;5024023;28;20132;-41
2022/03/17 00:25:29;;;;;;;6.20;4.20;;;;;;;19.31;38.97;101920.59;5023120;28;20081;-41
2022/03/17 00:27:56;;;;;;;6.30;4.25;;;;;;;19.30;39.08;101928.78;5021102;28;20100;-41
2022/03/17 00:30:24;;;;;;;7.40;4.05;;;;;;;19.29;38.84;101938.66;5020683;28;20045;-40
2022/03/17 00:32:50;;;;;;;6.03;3.72;;;;;;;19.30;38.89;101944.91;5021683;28;20176;-41
2022/03/17 00:35:35;;;;;;;7.38;4.55;;;;;;;19.31;39.23;101938.56;5022719;28;20175;-41
2022/03/17 00:38:03;;;;;;;8.10;4.30;;;;;;;19.29;39.18;101940.50;5022146;28;20046;-41
2022/03/17 00:40:30;;;;;;;7.07;4.22;;;;;;;19.29;39.10;101941.34;5025617;28;20080;-41
2022/03/17 00:42:56;;;;;;;6.72;4.00;;;;;;;19.28;39.07;101936.97;5023279;28;20381;-41
2022/03/17 00:45:24;;;;;;;7.53;4.70;;;;;;;19.27;39.41;101935.28;5025406;28;20076;-41
2022/03/17 00:47:51;;;;;;;5.90;4.47;;;;;;;19.25;39.24;101934.56;5022384;28;20132;-41
2022/03/17 00:50:17;;;;;;;6.68;4.80;;;;;;;19.24;39.06;101940.91;5024201;28;20049;-41
2022/03/17 00:52:44;;;;;;;6.32;4.20;;;;;;;19.22;39.48;101933.00;5019376;28;20136;-41
2022/03/17 00:55:10;;;;;;;6.35;4.75;;;;;;;19.22;39.40;101930.31;5023090;28;20050;-41
2022/03/17 00:57:37;;;;;;;7.97;4.63;;;;;;;19.21;39.22;101936.66;5022186;28;20137;-41
2022/03/17 01:00:05;;;;;;;7.13;5.28;;;;;;;19.22;39.69;101933.00;5020060;28;20046;-40
2022/03/17 01:02:32;;;;;;;9.48;5.18;;;;;;;19.21;39.47;101925.06;5021261;28;20459;-41
2022/03/17 01:04:59;;;;;;;10.45;5.57;;;;;;;19.20;39.04;101926.91;5022625;28;20213;-41
2022/03/17 01:07:26;;;;;;;9.52;5.45;;;;;;;19.19;39.48;101927.03;5022707;28;20042;-41
2022/03/17 01:09:52;;;;;;;8.13;5.40;;;;;;;19.18;39.79;101931.56;5020810;28;20045;-41
2022/03/17 01:12:19;;;;;;;9.25;5.45;;;;;;;19.16;39.47;101928.16;5022341;28;20136;-42
2022/03/17 01:14:47;;;;;;;6.47;4.68;;;;;;;19.16;39.73;101928.16;5019084;28;20128;-41
2022/03/17 01:17:13;;;;;;;7.35;4.55;;;;;;;19.17;39.94;101927.16;5021833;28;20042;-42
2022/03/17 01:19:40;;;;;;;7.43;5.05;;;;;;;19.19;39.83;101927.03;5026261;28;20072;-43
2022/03/17 01:22:07;;;;;;;7.55;5.15;;;;;;;19.18;39.78;101928.88;5019651;28;20042;-41
2022/03/17 01:24:34;;;;;;;9.40;5.43;;;;;;;19.17;39.59;101932.53;5020892;28;20420;-42
2022/03/17 01:27:00;;;;;;;8.55;4.90;;;;;;;19.17;39.71;101929.84;5022132;28;20765;-42
2022/03/17 01:29:27;;;;;;;7.13;4.88;;;;;;;19.17;39.57;101927.16;5022451;28;20145;-42
2022/03/17 01:31:53;;;;;;;6.30;4.63;;;;;;;19.17;39.61;101924.47;5025595;28;20081;-41
2022/03/17 01:34:20;;;;;;;7.05;5.00;;;;;;;19.19;39.77;101933.25;5024450;28;20054;-42
2022/03/17 01:36:46;;;;;;;6.55;4.95;;;;;;;19.19;39.72;101927.88;5024962;28;20276;-42
2022/03/17 01:39:13;;;;;;;6.82;4.72;;;;;;;19.18;39.61;101934.25;5022532;28;20145;-41
2022/03/17 01:41:40;;;;;;;8.70;4.55;;;;;;;19.18;39.65;101936.09;5021851;28;20133;-40
2022/03/17 01:44:07;;;;;;;7.88;4.88;;;;;;;19.17;39.55;101935.22;5020389;28;20137;-42
2022/03/17 01:47:26;;;;;;;7.50;4.38;;;;;;;19.16;39.88;101938.91;5022216;28;20128;-40
2022/03/17 01:49:20;;;;;;;8.75;5.30;;;;;;;19.17;39.84;101939.75;5023715;28;21207;-42
2022/03/17 01:51:48;;;;;;;8.02;4.88;;;;;;;19.17;39.62;101934.38;5028486;28;20053;-42
2022/03/17 01:54:16;;;;;;;9.90;5.45;;;;;;;19.16;40.09;101944.28;5024408;28;20352;-41
2022/03/17 01:57:05;;;;;;;7.43;5.00;;;;;;;19.15;39.77;101942.59;5029788;28;20042;-41
2022/03/17 01:59:32;;;;;;;8.55;5.00;;;;;;;19.16;39.97;101943.44;5030260;28;20512;-42
2022/03/17 02:01:59;;;;;;;6.57;4.25;;;;;;;19.15;39.85;101941.72;5027620;28;20046;-42
2022/03/17 02:04:26;;;;;;;9.95;5.85;;;;;;;19.14;40.35;101946.25;5023598;28;20448;-43
2022/03/17 02:06:52;;;;;;;7.50;5.00;;;;;;;19.13;40.43;101957.13;5026477;28;20038;-43
2022/03/17 02:09:19;;;;;;;8.15;5.07;;;;;;;19.12;40.18;101952.75;5025107;28;20425;-42
2022/03/17 02:14:34;;;;;;;7.90;5.13;;;;;;;19.07;40.58;101963.06;5026169;28;20413;-42
2022/03/17 02:17:01;;;;;;;9.82;5.35;;;;;;;19.06;40.58;101967.56;5025436;28;20056;-42
2022/03/17 02:19:27;;;;;;;7.65;4.93;;;;;;;19.07;40.92;101976.47;5025270;28;20070;-42
2022/03/17 02:21:54;;;;;;;9.45;4.88;;;;;;;19.04;40.75;101980.28;5024160;28;20489;-41
2022/03/17 02:27:06;;;;;;;8.88;5.65;;;;;;;19.03;40.68;101975.91;5023579;28;20128;-43
2022/03/17 02:29:32;;;;;;;7.78;5.78;;;;;;;19.03;40.78;101975.06;5022609;28;20045;-42
2022/03/17 02:31:59;;;;;;;9.50;5.75;;;;;;;19.03;40.57;101985.78;5023240;28;20037;-42
2022/03/17 02:34:26;;;;;;;9.60;5.65;;;;;;;19.04;40.50;101991.03;5021181;28;20100;-43
2022/03/17 02:36:54;;;;;;;7.07;4.75;;;;;;;19.02;40.58;102001.06;5027616;28;20090;-42
2022/03/17 02:39:21;;;;;;;7.30;4.57;;;;;;;19.02;40.81;102011.81;5023963;28;20124;-41
2022/03/17 02:41:48;;;;;;;8.05;4.88;;;;;;;19.00;40.67;102019.13;5024093;28;20277;-42
2022/03/17 02:44:15;;;;;;;7.35;4.65;;;;;;;18.98;40.68;102034.56;5023859;28;20128;-41
2022/03/17 02:46:41;;;;;;;5.57;3.95;;;;;;;18.96;41.37;102050.78;5022092;28;20084;-41
2022/03/17 02:49:08;;;;;;;6.80;4.28;;;;;;;18.94;41.37;102039.34;5022689;28;20431;-42
2022/03/17 02:51:34;;;;;;;6.75;4.07;;;;;;;18.93;41.50;102050.19;5022889;28;20057;-42
2022/03/17 02:54:01;;;;;;;6.38;3.92;;;;;;;18.91;41.98;102068.28;5025698;28;20831;-41
2022/03/17 02:56:27;;;;;;;5.70;3.60;;;;;;;18.89;41.83;102071.09;5023188;28;20164;-41
2022/03/17 02:58:54;;;;;;;6.30;4.03;;;;;;;18.88;41.95;102084.66;5025951;28;20080;-40
2022/03/17 03:01:20;;;;;;;4.05;3.15;;;;;;;18.86;42.18;102079.44;5025748;28;20052;-41
2022/03/17 03:03:47;;;;;;;4.88;3.22;;;;;;;18.85;42.21;102087.59;5021175;28;20046;-42
2022/03/17 03:06:15;;;;;;;5.53;3.70;;;;;;;18.84;42.40;102099.34;5023117;28;20136;-42
2022/03/17 03:08:41;;;;;;;4.75;3.38;;;;;;;18.83;42.36;102098.50;5022292;28;20056;-44
2022/03/17 03:11:08;;;;;;;5.25;2.95;;;;;;;18.83;42.23;102105.69;5022888;28;20061;-42
2022/03/17 03:13:36;;;;;;;5.57;3.25;;;;;;;18.80;42.66;102105.94;5026917;28;20045;-42
2022/03/17 03:16:03;;;;;;;4.40;2.97;;;;;;;18.80;42.85;102111.31;5025034;28;20057;-42
2022/03/17 03:18:30;;;;;;;4.32;2.97;;;;;;;18.79;42.76;102123.06;5022833;28;20132;-42
2022/03/17 03:20:56;;;;;;;3.17;2.53;;;;;;;18.78;42.67;102132.94;5023159;28;20052;-41
2022/03/17 03:23:23;;;;;;;4.50;2.65;;;;;;;18.77;43.03;102151.84;5026739;28;20053;-42
2022/03/17 03:25:50;;;;;;;4.60;2.70;;;;;;;18.74;42.71;102153.84;5023949;28;20087;-41
2022/03/17 03:28:16;;;;;;;2.92;2.22;;;;;;;18.73;43.13;102168.25;5018789;28;20218;-41
2022/03/17 03:30:43;;;;;;;3.38;2.30;;;;;;;18.73;43.18;102172.75;5022440;28;20120;-41
2022/03/17 03:33:09;;;;;;;3.45;2.45;;;;;;;18.71;43.17;102175.56;5025733;28;20365;-41
2022/03/17 03:38:22;;;;;;;5.18;2.17;;;;;;;18.69;43.62;102190.94;5027886;28;20041;-41
2022/03/17 03:40:49;;;;;;;4.28;2.55;;;;;;;18.68;43.43;102199.09;5026297;28;20045;-41
2022/03/17 03:43:16;;;;;;;3.03;2.25;;;;;;;18.67;43.44;102197.41;5024455;28;20578;-40
2022/03/17 03:45:42;;;;;;;3.05;2.28;;;;;;;18.66;43.59;102201.91;5023023;28;20077;-41
2022/03/17 03:48:09;;;;;;;3.22;2.20;;;;;;;18.65;43.39;102216.34;5022390;28;20132;-41
2022/03/17 03:50:37;;;;;;;3.53;1.85;;;;;;;18.65;43.62;102215.44;5024787;28;20425;-41
2022/03/17 03:53:04;;;;;;;2.83;1.92;;;;;;;18.64;43.37;102233.41;5024623;28;20080;-42
2022/03/17 03:55:31;;;;;;;3.45;1.95;;;;;;;18.63;43.39;102228.16;5025166;28;20071;-43
2022/03/17 03:57:59;;;;;;;2.20;1.65;;;;;;;18.62;43.48;102235.38;5023675;28;20054;-41
2022/03/17 04:02:57;;;;;;;4.70;2.00;;;;;;;18.62;43.86;102251.47;5024918;28;20103;-41
2022/03/17 04:05:44;;;;;;;3.50;1.83;;;;;;;18.62;43.46;102259.53;5025562;28;20053;-41
2022/03/17 04:08:11;;;;;;;3.58;1.85;;;;;;;18.61;43.38;102279.28;5024123;28;20480;-42
2022/03/17 04:10:37;;;;;;;2.63;1.80;;;;;;;18.59;43.87;102270.50;5020792;28;20122;-43
2022/03/17 04:13:04;;;;;;;2.45;1.60;;;;;;;18.59;43.82;102293.84;5021226;28;20046;-40
2022/03/17 04:15:30;;;;;;;3.45;2.00;;;;;;;18.59;43.95;102286.63;5021704;28;20045;-42
2022/03/17 04:17:57;;;;;;;3.25;1.90;;;;;;;18.59;43.80;102307.25;5021858;28;20124;-41
2022/03/17 04:20:23;;;;;;;3.05;1.70;;;;;;;18.57;43.94;102311.88;5023043;28;20052;-41
2022/03/17 04:22:50;;;;;;;2.80;1.58;;;;;;;18.56;43.97;102319.09;5026039;28;20091;-41
2022/03/17 04:25:16;;;;;;;2.83;1.45;;;;;;;18.55;44.31;102320.06;5023888;28;20471;-41
2022/03/17 04:27:43;;;;;;;3.03;1.58;;;;;;;18.55;43.84;102325.44;5022931;28;20137;-41
2022/03/17 04:30:10;;;;;;;2.55;1.55;;;;;;;18.54;43.70;102321.06;5022531;28;20079;-41
2022/03/17 04:32:37;;;;;;;3.90;1.42;;;;;;;18.54;43.80;102330.94;5023711;28;20051;-41
2022/03/17 04:35:04;;;;;;;3.20;1.40;;;;;;;18.54;43.80;102336.31;5021871;28;20045;-41
2022/03/17 04:37:32;;;;;;;2.72;1.50;;;;;;;18.54;43.82;102347.06;5021029;28;20128;-41
2022/03/17 04:39:59;;;;;;;2.40;1.48;;;;;;;18.52;43.78;102347.16;5020052;28;20080;-41
2022/03/17 04:42:25;;;;;;;2.78;1.60;;;;;;;18.51;43.88;102350.81;5022182;28;20061;-42
2022/03/17 04:44:52;;;;;;;2.78;1.90;;;;;;;18.51;44.26;102353.50;5025656;28;20056;-41
2022/03/17 04:47:18;;;;;;;3.08;1.60;;;;;;;18.51;44.10;102372.31;5023194;28;20135;-42
2022/03/17 04:49:45;;;;;;;1.98;1.30;;;;;;;18.49;44.24;102387.66;5022191;28;20492;-41
2022/03/17 04:54:57;;;;;;;3.85;1.65;;;;;;;18.49;44.08;102395.72;5020809;28;20046;-41
2022/03/17 04:57:24;;;;;;;4.35;1.98;;;;;;;18.50;43.87;102414.41;5020363;28;20320;-40
2022/03/17 04:59:51;;;;;;;2.83;1.63;;;;;;;18.48;44.08;102418.19;5018848;28;20433;-40
2022/03/17 05:02:18;;;;;;;3.35;1.50;;;;;;;18.47;44.20;102421.84;5021348;28;20042;-41
2022/03/17 05:04:44;;;;;;;2.92;1.60;;;;;;;18.47;44.12;102425.38;5018456;28;20057;-41
2022/03/17 05:07:11;;;;;;;2.58;1.45;;;;;;;18.47;44.01;102433.44;5023713;28;20382;-42
2022/03/17 05:09:37;;;;;;;2.35;1.40;;;;;;;18.45;44.44;102434.53;5022913;28;20038;-42
2022/03/17 05:12:05;;;;;;;6.88;1.65;;;;;;;18.45;44.62;102440.78;5023494;28;20124;-42
2022/03/17 05:14:31;;;;;;;1.83;1.38;;;;;;;18.44;44.59;102456.97;5026249;28;20128;-41
2022/03/17 05:16:58;;;;;;;3.35;1.48;;;;;;;18.44;44.55;102465.03;5025144;28;20084;-41
2022/03/17 05:19:24;;;;;;;2.78;1.20;;;;;;;18.43;44.47;102474.06;5024806;28;20420;-44
2022/03/17 05:21:52;;;;;;;2.13;1.30;;;;;;;18.42;44.32;102475.03;5020760;28;20045;-41
2022/03/17 05:24:19;;;;;;;5.60;1.50;;;;;;;18.41;44.39;102487.63;5021745;28;20052;-40
2022/03/17 05:26:45;;;;;;;2.53;1.30;;;;;;;18.41;44.06;102487.63;5030562;28;20121;-41
2022/03/17 05:29:12;;;;;;;2.63;1.17;;;;;;;18.41;44.50;102497.47;5026215;28;20149;-40
2022/03/17 05:31:39;;;;;;;3.08;1.38;;;;;;;18.41;43.93;102502.84;5024807;28;20049;-41
2022/03/17 05:34:06;;;;;;;3.50;1.50;;;;;;;18.40;44.15;102511.88;5022906;28;20281;-41
2022/03/17 05:36:32;;;;;;;2.58;1.40;;;;;;;18.39;44.16;102521.75;5026089;28;20237;-41
2022/03/17 05:38:59;;;;;;;3.88;1.50;;;;;;;18.38;44.14;102530.78;5028093;28;20389;-41
2022/03/17 05:41:26;;;;;;;4.53;1.63;;;;;;;18.38;44.48;102532.63;5027429;28;20137;-40
2022/03/17 05:43:52;;;;;;;6.85;1.70;;;;;;;18.38;44.49;102543.38;5026713;28;20060;-41
2022/03/17 05:46:20;;;;;;;4.03;1.70;;;;;;;18.37;44.39;102550.56;5025738;28;20042;-40
2022/03/17 05:48:47;;;;;;;6.25;1.45;;;;;;;18.37;44.10;102555.06;5024463;28;20041;-40
2022/03/17 05:51:15;;;;;;;7.95;1.77;;;;;;;18.36;44.57;102550.66;5026021;28;20041;-40
2022/03/17 05:53:41;;;;;;;4.15;1.45;;;;;;;18.35;44.76;102557.84;5026537;28;20053;-40
2022/03/17 05:56:10;;;;;;;4.72;1.73;;;;;;;18.35;44.56;102567.75;5024882;28;20085;-41
2022/03/17 05:58:36;;;;;;;8.52;2.05;;;;;;;18.35;44.83;102568.59;5029589;28;20051;-40
2022/03/17 06:01:03;;;;;;;3.30;1.55;;;;;;;18.35;44.37;102567.75;5024984;28;20045;-41
2022/03/17 06:03:30;;;;;;;3.92;1.45;;;;;;;18.34;44.49;102579.47;5025987;28;20049;-41
2022/03/17 06:05:58;;;;;;;6.70;1.75;;;;;;;18.34;44.48;102590.19;5025485;28;20049;-42
2022/03/17 06:08:24;;;;;;;4.13;1.65;;;;;;;18.32;44.50;102589.44;5026987;28;20128;-42
2022/03/17 06:10:51;;;;;;;4.03;1.45;;;;;;;18.33;44.26;102602.78;5023043;28;20045;-41
2022/03/17 06:13:18;;;;;;;2.78;1.30;;;;;;;18.31;44.39;102603.84;5026016;28;20417;-41
2022/03/17 06:15:45;;;;;;;3.83;1.70;;;;;;;18.31;44.27;102611.91;5025686;28;20121;-41
2022/03/17 06:18:11;;;;;;;5.15;1.70;;;;;;;18.30;44.74;102624.47;5025983;28;20552;-41
2022/03/17 06:20:39;;;;;;;3.72;1.70;;;;;;;18.30;44.71;102627.16;5027608;28;20045;-42
2022/03/17 06:23:07;;;;;;;6.70;2.00;;;;;;;18.31;44.51;102636.06;5027097;28;20425;-42
2022/03/17 06:25:36;;;;;;;5.80;1.75;;;;;;;18.31;44.49;102638.72;5027403;28;20049;-41
2022/03/17 06:28:08;;;;;;;6.80;1.85;;;;;;;18.31;44.17;102642.28;5025413;28;20049;-40
2022/03/17 06:30:35;;;;;;;5.30;2.05;;;;;;;18.31;43.86;102644.09;5026321;28;20049;-41
2022/03/17 06:33:04;;;;;;;4.57;1.60;;;;;;;18.31;44.41;102652.16;5023359;28;20088;-41
2022/03/17 06:35:31;;;;;;;5.55;1.75;;;;;;;18.29;44.50;102654.97;5026533;28;20061;-41
2022/03/17 06:37:59;;;;;;;4.40;2.35;;;;;;;18.30;44.17;102664.72;5024145;28;20079;-41
2022/03/17 06:40:29;;;;;;;4.97;1.83;;;;;;;18.31;44.22;102673.63;5022673;28;20034;-40
2022/03/17 06:42:57;;;;;;;5.18;1.77;;;;;;;18.30;44.74;102685.34;5025770;28;20073;-41
2022/03/17 06:45:24;;;;;;;5.07;1.85;;;;;;;18.30;44.88;102696.09;5022439;28;20069;-41
2022/03/17 06:47:52;;;;;;;4.65;1.70;;;;;;;18.30;44.55;102691.56;5023391;28;20042;-41
2022/03/17 06:50:20;;;;;;;4.03;1.67;;;;;;;18.30;44.58;102704.13;5023414;28;20381;-41
2022/03/17 06:52:47;;;;;;;4.50;1.90;;;;;;;18.30;44.42;102717.56;5022376;28;20389;-40
2022/03/17 06:55:14;;;;;;;3.20;1.67;;;;;;;18.29;44.59;102711.34;5021684;28;20050;-40
2022/03/17 06:57:41;;;;;;;5.20;1.92;;;;;;;18.28;44.41;102720.34;5019027;28;20157;-42
2022/03/17 07:00:11;;;;;;;4.53;1.63;;;;;;;18.28;44.67;102724.84;5028380;28;20396;-41
2022/03/17 07:02:37;;;;;;;4.55;1.88;;;;;;;18.29;44.22;102729.25;5018815;28;20061;-41
2022/03/17 07:05:06;;;;;;;4.63;1.58;;;;;;;18.29;44.67;102732.81;5024279;28;20068;-41
2022/03/17 07:07:33;;;;;;;4.00;1.50;;;;;;;18.28;44.59;102746.31;5020440;28;20070;-41
2022/03/17 07:10:00;;;;;;;3.67;1.38;;;;;;;18.29;44.38;102754.28;5019429;28;20038;-41
2022/03/17 07:12:26;;;;;;;3.55;1.40;;;;;;;18.30;44.05;102755.13;5021631;28;20081;-42
2022/03/17 07:14:53;;;;;;;7.25;1.90;;;;;;;18.29;44.11;102766.81;5021688;28;20087;-41
2022/03/17 07:17:22;;;;;;;6.00;1.48;;;;;;;18.28;44.34;102767.78;5020721;28;20084;-41
2022/03/17 07:19:59;;;;;;;6.13;1.85;;;;;;;18.29;44.35;102767.72;5018801;28;20077;-41
2022/03/17 07:22:27;;;;;;;5.20;1.70;;;;;;;18.30;43.89;102784.66;5019689;28;20053;-42
2022/03/17 07:24:54;;;;;;;8.02;1.85;;;;;;;18.30;44.13;102779.31;5021986;28;20608;-42
2022/03/17 07:27:21;;;;;;;2.22;1.30;;;;;;;18.30;44.40;102780.16;5020199;28;20128;-42
2022/03/17 07:29:49;;;;;;;6.13;1.60;;;;;;;18.31;44.19;102789.06;5025843;28;20738;-41
2022/03/17 07:32:16;;;;;;;4.22;1.55;;;;;;;18.30;44.22;102798.94;5019244;28;20429;-42
2022/03/17 07:34:42;;;;;;;4.85;1.38;;;;;;;18.32;44.16;102790.78;5022491;28;20048;-41
2022/03/17 07:37:09;;;;;;;4.05;1.70;;;;;;;18.32;44.32;102802.38;5020035;28;20080;-41
2022/03/17 07:39:36;;;;;;;5.57;1.60;;;;;;;18.33;43.93;102805.91;5020975;28;20073;-42
2022/03/17 07:42:04;;;;;;;5.80;1.70;;;;;;;18.33;44.06;102822.91;5021134;28;20124;-42
2022/03/17 07:44:31;;;;;;;5.63;1.48;;;;;;;18.34;43.98;102824.59;5021521;28;20057;-41
2022/03/17 07:46:57;;;;;;;3.95;1.55;;;;;;;18.36;43.97;102836.09;5021139;28;20053;-42
2022/03/17 07:49:24;;;;;;;3.63;1.42;;;;;;;18.37;43.89;102842.31;5018895;28;20087;-42
2022/03/17 07:51:51;;;;;;;3.35;1.40;;;;;;;18.38;44.15;102842.22;5018850;28;20041;-42
2022/03/17 07:54:19;;;;;;;3.40;1.38;;;;;;;18.38;43.86;102844.91;5020742;28;20049;-43
2022/03/17 07:56:46;;;;;;;6.50;1.60;;;;;;;18.39;44.01;102848.44;5020652;28;20064;-41
2022/03/17 07:59:16;;;;;;;4.47;1.38;;;;;;;18.39;44.25;102845.75;5022164;28;20085;-42
2022/03/17 08:01:42;;;;;;;2.95;1.40;;;;;;;18.40;43.97;102853.69;5020116;28;20075;-41
2022/03/17 08:04:09;;;;;;;2.53;1.33;;;;;;;18.39;43.68;102857.34;5018654;28;20045;-41
2022/03/17 08:06:36;;;;;;;3.08;1.40;;;;;;;18.39;43.91;102872.59;5021319;28;20053;-41
2022/03/17 08:09:03;;;;;;;3.83;1.80;;;;;;;18.39;43.62;102883.34;5017239;28;20169;-41
2022/03/17 08:11:29;;;;;;;3.10;1.45;;;;;;;18.38;43.60;102878.94;5026372;28;20041;-42
2022/03/17 08:13:56;;;;;;;2.65;1.15;;;;;;;18.38;43.58;102881.63;5025151;28;20128;-41
2022/03/17 08:16:23;;;;;;;3.75;1.17;;;;;;;18.37;43.80;102888.84;5021756;28;20088;-41
2022/03/17 08:18:49;;;;;;;5.53;1.73;;;;;;;18.37;44.18;102893.31;5028466;28;20057;-41
2022/03/17 08:21:17;;;;;;;5.32;1.88;;;;;;;18.36;43.80;102894.28;5024270;28;20116;-41
2022/03/17 08:23:45;;;;;;;11.38;2.15;;;;;;;18.34;44.10;102907.84;5020251;28;20054;-40
2022/03/17 08:26:14;;;;;;;6.75;2.20;;;;;;;18.35;44.03;102919.44;5024903;28;20041;-41
2022/03/17 08:28:41;;;;;;;10.25;1.90;;;;;;;18.34;44.16;102920.41;5022917;28;20045;-42
2022/03/17 08:31:07;;;;;;;12.00;2.65;;;;;;;18.33;44.11;102929.41;5024945;28;20088;-42
2022/03/17 08:33:34;;;;;;;11.35;3.00;;;;;;;18.34;43.82;102933.81;5021036;28;20462;-41
2022/03/17 08:36:01;;;;;;;8.57;2.28;;;;;;;18.33;43.94;102950.88;5026022;28;20077;-41
2022/03/17 08:38:28;;;;;;;8.25;3.25;;;;;;;18.33;44.18;102956.25;5020818;28;20140;-41
2022/03/17 08:40:54;;;;;;;11.20;2.65;;;;;;;18.33;43.91;102959.81;5027281;28;20067;-43
2022/03/17 08:43:21;;;;;;;9.23;3.28;;;;;;;18.34;43.75;102966.91;5021734;28;20049;-41
2022/03/17 08:51:23;;;;;;;10.07;3.40;;;;;;;18.39;43.53;102970.13;5021184;28;20450;-41
2022/03/17 08:53:50;;;;;;;11.38;3.20;;;;;;;18.40;43.72;102977.19;5022161;28;20052;-41
2022/03/17 08:56:18;;;;;;;6.95;2.50;;;;;;;18.42;43.76;102986.03;5025794;28;20046;-41
2022/03/17 08:58:44;;;;;;;14.73;2.72;;;;;;;18.45;44.04;102982.25;5027188;28;20102;-41
2022/03/17 09:01:11;;;;;;;7.05;2.85;;;;;;;18.48;44.01;102992.78;5030019;28;20045;-42
2022/03/17 09:03:38;;;;;;;10.32;2.72;;;;;;;18.52;44.03;102998.81;5028341;28;20383;-40
2022/03/17 09:06:04;;;;;;;11.30;2.70;;;;;;;18.57;44.04;102999.38;5028233;28;20133;-40
2022/03/17 09:08:31;;;;;;;10.13;2.40;;;;;;;18.62;43.58;103008.84;5021589;28;20140;-40
2022/03/17 09:10:57;;;;;;;9.57;2.40;;;;;;;18.66;43.68;103017.56;5022370;28;20053;-40
2022/03/17 09:13:25;;;;;;;6.13;2.40;;;;;;;18.71;43.29;103023.50;5024033;28;20125;-41
2022/03/17 09:15:53;;;;;;;10.70;3.17;;;;;;;18.73;43.38;103025.13;5025365;28;20049;-41
2022/03/17 09:18:21;;;;;;;7.95;2.75;;;;;;;18.77;43.26;103024.91;5041659;28;20124;-41
2022/03/17 09:20:49;;;;;;;6.68;2.20;;;;;;;18.80;43.35;103028.22;5029703;28;20041;-41
2022/03/17 09:23:16;;;;;;;10.90;2.47;;;;;;;18.84;43.17;103035.13;5019775;28;20053;-41
2022/03/17 09:25:43;;;;;;;8.60;2.28;;;;;;;18.88;43.10;103041.16;5025475;28;20512;-41
2022/03/17 09:28:10;;;;;;;7.97;2.15;;;;;;;18.93;43.09;103044.38;5022481;28;20446;-41
2022/03/17 09:30:37;;;;;;;8.48;2.50;;;;;;;18.97;43.65;103041.38;5025178;28;20124;-41
2022/03/17 09:33:05;;;;;;;7.05;2.10;;;;;;;19.02;43.02;103042.91;5025688;28;20045;-41
2022/03/17 09:35:34;;;;;;;6.80;2.60;;;;;;;19.08;43.35;103037.06;5025718;28;20041;-40
2022/03/17 09:38:03;;;;;;;4.65;1.88;;;;;;;19.12;43.17;103042.13;5025982;28;20049;-40
2022/03/17 09:40:29;;;;;;;5.82;2.20;;;;;;;19.17;43.08;103047.19;5024532;28;20052;-41
2022/03/17 09:45:42;;;;;;;9.35;2.08;;;;;;;19.27;42.59;103052.78;5022478;28;20125;-41
2022/03/17 09:48:11;;;;;;;4.47;1.60;;;;;;;19.32;43.09;103058.69;5030199;28;20046;-41
2022/03/17 09:50:39;;;;;;;9.23;2.40;;;;;;;19.40;42.54;103056.31;5020888;28;20069;-41
2022/03/17 09:53:07;;;;;;;6.40;1.92;;;;;;;19.45;42.73;103057.69;5029958;28;20124;-41
2022/03/17 09:55:34;;;;;;;8.40;1.73;;;;;;;19.53;42.62;103059.00;5024981;28;20162;-41
2022/03/17 09:58:06;;;;;;;5.13;1.98;;;;;;;19.61;42.58;103062.00;5026602;28;20161;-41
2022/03/17 10:00:48;;;;;;;7.97;1.88;;;;;;;19.65;42.68;103080.53;5021594;28;20042;-42
2022/03/17 10:03:19;;;;;;;3.88;1.40;;;;;;;19.72;42.62;103087.19;5024693;28;20045;-42
2022/03/17 10:05:47;;;;;;;7.40;1.65;;;;;;;19.79;42.18;103092.16;5025070;28;20041;-41
2022/03/17 10:08:20;;;;;;;9.20;1.80;;;;;;;19.84;42.29;103098.06;5025149;28;20049;-41
2022/03/17 10:10:49;;;;;;;5.18;1.33;;;;;;;19.89;42.09;103098.56;5025064;28;20046;-44
2022/03/17 10:13:22;;;;;;;4.45;1.48;;;;;;;19.92;41.92;103101.91;5027645;28;20053;-40
2022/03/17 10:16:08;;;;;;;3.78;1.10;;;;;;;19.97;42.37;103117.72;5025689;28;20085;-40
2022/03/17 10:18:37;;;;;;;6.90;2.08;;;;;;;20.00;42.39;103120.19;5026538;28;20076;-40
2022/03/17 10:21:16;;;;;;;2.75;1.25;;;;;;;20.04;41.41;103119.00;5022344;28;20455;-40
2022/03/17 10:23:59;;;;;;;4.38;1.70;;;;;;;20.10;41.77;103123.94;5022099;28;20041;-40
2022/03/17 10:26:34;;;;;;;3.80;1.30;;;;;;;20.13;41.45;103128.22;5024731;28;20381;-41
2022/03/17 10:29:06;;;;;;;5.55;1.45;;;;;;;20.17;42.21;103133.28;5023421;28;20084;-40
2022/03/17 10:32:03;;;;;;;4.32;1.50;;;;;;;20.21;41.52;103150.06;5023794;28;20184;-41
2022/03/17 10:34:47;;;;;;;5.93;1.83;;;;;;;20.28;41.51;103147.81;5027127;28;20052;-41
2022/03/17 10:37:16;;;;;;;4.30;1.53;;;;;;;20.29;41.71;103152.22;5027828;28;20142;-41
2022/03/17 10:39:48;;;;;;;3.85;1.23;;;;;;;20.31;41.68;103172.69;5027800;28;20115;-40
2022/03/17 10:42:20;;;;;;;4.95;1.00;;;;;;;20.34;41.22;103171.56;5024297;28;20037;-41
2022/03/17 10:44:58;;;;;;;3.55;1.20;;;;;;;20.35;41.44;103186.78;5023773;28;20140;-41
2022/03/17 10:47:37;;;;;;;3.60;1.17;;;;;;;20.36;41.47;103183.13;5021811;28;20038;-41
2022/03/17 10:50:16;;;;;;;3.97;1.25;;;;;;;20.38;41.06;103194.63;5022898;28;20449;-41
2022/03/17 10:52:46;;;;;;;5.55;1.77;;;;;;;20.40;41.57;103190.84;5024460;28;20081;-41
2022/03/17 10:55:14;;;;;;;3.95;1.25;;;;;;;20.42;40.83;103186.22;5025470;28;20064;-41
2022/03/17 10:57:41;;;;;;;5.53;1.20;;;;;;;20.44;41.21;103186.09;5024223;28;20060;-41
2022/03/17 11:00:19;;;;;;;3.25;1.23;;;;;;;20.45;41.38;103204.84;5026118;28;20149;-41
2022/03/17 11:02:48;;;;;;;4.45;1.40;;;;;;;20.47;40.76;103204.75;5023628;28;20055;-41
2022/03/17 11:05:17;;;;;;;4.68;1.52;;;;;;;20.49;40.95;103210.03;5020450;28;20658;-41
2022/03/17 11:07:48;;;;;;;4.35;1.58;;;;;;;20.49;40.67;103208.22;5020721;28;20132;-41
2022/03/17 11:10:16;;;;;;;3.85;1.50;;;;;;;20.51;40.66;103202.72;5022507;28;20057;-41
2022/03/17 11:12:43;;;;;;;4.63;1.20;;;;;;;20.52;40.41;103209.81;5021482;28;20099;-41
2022/03/17 11:15:10;;;;;;;4.28;1.55;;;;;;;20.54;40.32;103210.56;5025778;28;20084;-41
2022/03/17 11:17:42;;;;;;;4.53;1.45;;;;;;;20.54;40.66;103206.03;5025189;28;20056;-40
2022/03/17 11:20:11;;;;;;;3.85;1.30;;;;;;;20.57;40.74;103226.50;5022447;28;20045;-41
2022/03/17 11:22:39;;;;;;;6.15;1.30;;;;;;;20.58;40.88;103215.63;5020593;28;20321;-40
2022/03/17 11:25:15;;;;;;;3.60;1.20;;;;;;;20.56;40.60;103230.19;5025620;28;20175;-41
2022/03/17 11:27:47;;;;;;;4.25;1.52;;;;;;;20.57;40.65;103227.38;5024442;28;20125;-41
2022/03/17 11:30:15;;;;;;;2.83;1.25;;;;;;;20.57;40.08;103232.75;5024930;28;20045;-40
2022/03/17 11:32:58;;;;;;;4.50;1.30;;;;;;;20.57;40.64;103235.44;5018033;28;20054;-40
2022/03/17 11:35:32;;;;;;;3.78;0.98;;;;;;;20.58;40.30;103241.69;5021941;28;20071;-41
2022/03/17 11:38:22;;;;;;;2.25;0.88;;;;;;;20.58;40.74;103237.19;5020790;28;20191;-40
2022/03/17 11:41:14;;;;;;;2.70;1.10;;;;;;;20.58;40.36;103230.91;5022096;28;20124;-40
2022/03/17 11:43:46;;;;;;;2.63;0.80;;;;;;;20.59;39.93;103252.38;5021161;28;20505;-40
2022/03/17 11:46:20;;;;;;;2.90;0.90;;;;;;;20.59;40.34;103238.06;5022233;28;20464;-41
2022/03/17 11:48:54;;;;;;;4.00;1.42;;;;;;;20.60;40.22;103243.31;5022680;28;20041;-41
2022/03/17 11:51:22;;;;;;;4.03;1.13;;;;;;;20.60;40.52;103245.16;5018594;28;20099;-41